Time;durP1;ratioP1;P1;durP2;ratioP2;P2;SDS_P1;SDS_P2;PMS_P1;PMS_P2;Temp;Humidity;BMP_temperature;BMP_pressure;BME280_temperature;BME280_humidity;BME280_pressure;Samples;Min_cycle;Max_cycle;Signal;HPM_P1;HPM_P2
2021/08/02 00:02:12;;;;;;;0.10;0.10;;;;;;;;;;5104756;28;20248;-70
2021/08/02 00:04:42;;;;;;;0.10;0.10;;;;;;;;;;5093772;28;20547;-70
2021/08/02 00:07:11;;;;;;;0.00;0.00;;;;;;;;;;5102221;28;20200;-70
2021/08/02 00:09:41;;;;;;;0.10;0.10;;;;;;;;;;5104959;28;20252;-70
2021/08/02 00:12:11;;;;;;;0.00;0.00;;;;;;;;;;5104526;28;20205;-70
2021/08/02 00:14:37;;;;;;;0.10;0.10;;;;;;;;;;5104740;28;20263;-71
2021/08/02 00:17:05;;;;;;;0.10;0.10;;;;;;;;;;5104773;28;20211;-71
2021/08/02 00:19:31;;;;;;;0.00;0.00;;;;;;;;;;5104401;28;20554;-70
2021/08/02 00:21:58;;;;;;;0.00;0.00;;;;;;;;;;5090737;28;20208;-70
2021/08/02 00:24:25;;;;;;;0.00;0.00;;;;;;;;;;5083913;28;20277;-72
2021/08/02 00:26:53;;;;;;;0.10;0.10;;;;;;;;;;5095926;28;20546;-72
2021/08/02 00:29:20;;;;;;;0.10;0.10;;;;;;;;;;5104500;28;20249;-72
2021/08/02 00:31:47;;;;;;;0.03;0.03;;;;;;;;;;5093990;28;20514;-72
2021/08/02 00:34:13;;;;;;;0.10;0.10;;;;;;;;;;5100407;28;20511;-71
2021/08/02 00:36:40;;;;;;;0.00;0.00;;;;;;;;;;5104230;28;20207;-69
2021/08/02 00:39:08;;;;;;;0.00;0.00;;;;;;;;;;5089563;28;20205;-70
2021/08/02 00:41:53;;;;;;;0.00;0.00;;;;;;;;;;5097083;28;20201;-70
2021/08/02 00:44:32;;;;;;;0.10;0.10;;;;;;;;;;5099186;28;20241;-70
2021/08/02 00:47:00;;;;;;;0.10;0.10;;;;;;;;;;5091965;28;20261;-69
2021/08/02 00:49:27;;;;;;;0.00;0.00;;;;;;;;;;5089898;28;20309;-70
2021/08/02 00:51:55;;;;;;;0.00;0.00;;;;;;;;;;5100380;28;20200;-70
2021/08/02 00:54:22;;;;;;;0.00;0.00;;;;;;;;;;5093292;28;20215;-70
2021/08/02 00:56:50;;;;;;;0.00;0.00;;;;;;;;;;5094494;28;20209;-70
2021/08/02 00:59:16;;;;;;;0.10;0.10;;;;;;;;;;5083268;28;20216;-70
2021/08/02 01:01:45;;;;;;;0.10;0.10;;;;;;;;;;5084154;28;20237;-70
2021/08/02 01:04:12;;;;;;;0.00;0.00;;;;;;;;;;5083525;28;20224;-70
2021/08/02 01:06:39;;;;;;;0.08;0.08;;;;;;;;;;5083020;28;20283;-70
2021/08/02 01:09:07;;;;;;;0.08;0.08;;;;;;;;;;5095720;28;20249;-70
2021/08/02 01:11:34;;;;;;;0.00;0.00;;;;;;;;;;5099441;28;20200;-70
2021/08/02 01:14:02;;;;;;;0.10;0.10;;;;;;;;;;5093986;28;20196;-70
2021/08/02 01:16:30;;;;;;;0.10;0.10;;;;;;;;;;5086483;28;20209;-70
2021/08/02 01:18:58;;;;;;;0.00;0.00;;;;;;;;;;5092531;28;20261;-70
2021/08/02 01:21:26;;;;;;;0.10;0.10;;;;;;;;;;5088866;28;20211;-70
2021/08/02 01:23:53;;;;;;;0.03;0.03;;;;;;;;;;5096288;28;20276;-70
2021/08/02 01:26:41;;;;;;;0.08;0.08;;;;;;;;;;5083288;28;20252;-70
2021/08/02 01:29:26;;;;;;;0.10;0.10;;;;;;;;;;5083267;28;20200;-70
2021/08/02 01:31:52;;;;;;;0.10;0.10;;;;;;;;;;5100637;28;20201;-70
2021/08/02 01:34:18;;;;;;;0.08;0.08;;;;;;;;;;5094161;28;20419;-69
2021/08/02 01:36:45;;;;;;;0.00;0.00;;;;;;;;;;5083332;28;20488;-70
2021/08/02 01:39:12;;;;;;;0.05;0.05;;;;;;;;;;5089945;28;20208;-71
2021/08/02 01:41:39;;;;;;;0.10;0.10;;;;;;;;;;5103291;28;20499;-70
2021/08/02 01:44:05;;;;;;;0.00;0.00;;;;;;;;;;5097536;28;20230;-71
2021/08/02 01:46:44;;;;;;;0.10;0.10;;;;;;;;;;5094658;28;20384;-71
2021/08/02 01:49:14;;;;;;;0.00;0.00;;;;;;;;;;5083742;28;20200;-71
2021/08/02 01:51:42;;;;;;;0.10;0.10;;;;;;;;;;5095058;28;20236;-71
2021/08/02 01:54:13;;;;;;;0.10;0.10;;;;;;;;;;5102052;28;20301;-71
2021/08/02 01:56:45;;;;;;;0.03;0.03;;;;;;;;;;5103228;28;20249;-71
2021/08/02 01:59:14;;;;;;;0.10;0.10;;;;;;;;;;5100737;28;20574;-71
2021/08/02 02:01:42;;;;;;;0.00;0.00;;;;;;;;;;5082795;28;20225;-71
2021/08/02 02:04:09;;;;;;;0.10;0.10;;;;;;;;;;5084756;28;20219;-71
2021/08/02 02:06:38;;;;;;;0.03;0.03;;;;;;;;;;5104828;28;20200;-71
2021/08/02 02:09:05;;;;;;;0.10;0.10;;;;;;;;;;5093045;28;20501;-71
2021/08/02 02:11:33;;;;;;;0.10;0.10;;;;;;;;;;5107274;28;20215;-71
2021/08/02 02:14:01;;;;;;;0.05;0.05;;;;;;;;;;5106817;28;20200;-71
2021/08/02 02:16:28;;;;;;;0.10;0.10;;;;;;;;;;5087396;28;20212;-70
2021/08/02 02:18:55;;;;;;;0.00;0.00;;;;;;;;;;5086560;28;20227;-70
2021/08/02 02:21:24;;;;;;;0.05;0.05;;;;;;;;;;5090211;28;20245;-71
2021/08/02 02:23:51;;;;;;;0.10;0.10;;;;;;;;;;5096727;28;20231;-69
2021/08/02 02:26:17;;;;;;;0.05;0.05;;;;;;;;;;5102499;28;20331;-72
2021/08/02 02:28:44;;;;;;;0.30;0.30;;;;;;;;;;5098632;28;20478;-70
2021/08/02 02:31:12;;;;;;;0.00;0.00;;;;;;;;;;5086184;28;20478;-69
2021/08/02 02:33:38;;;;;;;0.00;0.00;;;;;;;;;;5092572;28;20210;-70
2021/08/02 02:36:05;;;;;;;0.00;0.00;;;;;;;;;;5094121;28;20211;-70
2021/08/02 02:38:32;;;;;;;0.10;0.10;;;;;;;;;;5086218;28;20266;-72
2021/08/02 02:40:59;;;;;;;0.10;0.10;;;;;;;;;;5097394;28;20222;-71
2021/08/02 02:43:26;;;;;;;0.00;0.00;;;;;;;;;;5106272;28;20219;-71
2021/08/02 02:45:53;;;;;;;0.00;0.00;;;;;;;;;;5097028;28;20240;-71
2021/08/02 02:48:21;;;;;;;0.10;0.10;;;;;;;;;;5085962;28;20243;-71
2021/08/02 02:50:48;;;;;;;0.00;0.00;;;;;;;;;;5093578;28;20207;-71
2021/08/02 02:53:15;;;;;;;0.10;0.10;;;;;;;;;;5092201;28;20250;-71
2021/08/02 02:55:42;;;;;;;0.10;0.10;;;;;;;;;;5100348;28;20291;-72
2021/08/02 02:58:08;;;;;;;0.00;0.00;;;;;;;;;;5085724;28;20245;-70
2021/08/02 03:00:35;;;;;;;0.10;0.10;;;;;;;;;;5086049;28;20199;-70
2021/08/02 03:03:02;;;;;;;0.00;0.00;;;;;;;;;;5085596;28;20204;-70
2021/08/02 03:05:33;;;;;;;0.00;0.00;;;;;;;;;;5085926;28;20230;-71
2021/08/02 03:08:00;;;;;;;0.05;0.05;;;;;;;;;;5085811;28;20214;-72
2021/08/02 03:10:27;;;;;;;0.10;0.10;;;;;;;;;;5085577;28;20210;-72
2021/08/02 03:12:54;;;;;;;0.00;0.00;;;;;;;;;;5089585;28;20198;-70
2021/08/02 03:15:21;;;;;;;0.00;0.00;;;;;;;;;;5096021;28;20209;-70
2021/08/02 03:17:47;;;;;;;0.10;0.10;;;;;;;;;;5098621;28;20276;-70
2021/08/02 03:20:14;;;;;;;0.03;0.03;;;;;;;;;;5085209;28;20203;-70
2021/08/02 03:22:45;;;;;;;0.03;0.03;;;;;;;;;;5099583;28;20229;-69
2021/08/02 03:25:14;;;;;;;0.00;0.00;;;;;;;;;;5085708;28;20212;-70
2021/08/02 03:27:44;;;;;;;0.20;0.20;;;;;;;;;;5085320;28;20245;-70
2021/08/02 03:30:11;;;;;;;0.00;0.00;;;;;;;;;;5099168;28;20210;-70
2021/08/02 03:32:38;;;;;;;0.10;0.10;;;;;;;;;;5097105;28;20427;-71
2021/08/02 03:35:07;;;;;;;0.03;0.03;;;;;;;;;;5105499;28;20206;-71
2021/08/02 03:37:35;;;;;;;0.00;0.00;;;;;;;;;;5094208;28;20253;-70
2021/08/02 03:40:03;;;;;;;0.10;0.10;;;;;;;;;;5101742;28;20210;-72
2021/08/02 03:42:30;;;;;;;0.10;0.10;;;;;;;;;;5105394;28;20210;-70
2021/08/02 03:44:57;;;;;;;0.10;0.10;;;;;;;;;;5089362;28;20280;-70
2021/08/02 03:47:24;;;;;;;0.05;0.05;;;;;;;;;;5084928;28;20437;-71
2021/08/02 03:49:50;;;;;;;0.10;0.10;;;;;;;;;;5098439;28;20203;-71
2021/08/02 03:52:17;;;;;;;0.00;0.00;;;;;;;;;;5090757;28;20271;-71
2021/08/02 03:54:43;;;;;;;0.00;0.00;;;;;;;;;;5105211;28;20527;-71
2021/08/02 03:57:11;;;;;;;0.08;0.08;;;;;;;;;;5104558;28;20199;-71
2021/08/02 03:59:37;;;;;;;0.00;0.00;;;;;;;;;;5104690;28;20250;-71
2021/08/02 04:02:04;;;;;;;0.08;0.08;;;;;;;;;;5099910;28;20296;-71
2021/08/02 04:04:31;;;;;;;0.00;0.00;;;;;;;;;;5085514;28;20588;-71
2021/08/02 04:06:57;;;;;;;0.10;0.10;;;;;;;;;;5095365;28;20256;-71
2021/08/02 04:09:24;;;;;;;0.05;0.05;;;;;;;;;;5087162;28;20507;-71
2021/08/02 04:11:51;;;;;;;0.10;0.10;;;;;;;;;;5084110;28;20242;-71
2021/08/02 04:14:19;;;;;;;0.10;0.10;;;;;;;;;;5084191;28;20267;-71
2021/08/02 04:16:45;;;;;;;0.10;0.10;;;;;;;;;;5084328;28;20204;-70
2021/08/02 04:19:11;;;;;;;0.08;0.08;;;;;;;;;;5097898;28;20222;-71
2021/08/02 04:21:37;;;;;;;0.08;0.08;;;;;;;;;;5084687;28;20501;-71
2021/08/02 04:24:04;;;;;;;0.05;0.05;;;;;;;;;;5095859;28;20227;-71
2021/08/02 04:26:31;;;;;;;0.10;0.10;;;;;;;;;;5100923;28;20199;-70
2021/08/02 04:28:57;;;;;;;0.00;0.00;;;;;;;;;;5083795;28;20467;-70
2021/08/02 04:31:25;;;;;;;0.10;0.10;;;;;;;;;;5098211;28;20203;-70
2021/08/02 04:33:52;;;;;;;0.22;0.22;;;;;;;;;;5084026;28;20283;-70
2021/08/02 04:36:18;;;;;;;0.00;0.00;;;;;;;;;;5083531;28;20206;-70
2021/08/02 04:38:44;;;;;;;0.00;0.00;;;;;;;;;;5090114;28;20513;-70
2021/08/02 04:41:11;;;;;;;0.00;0.00;;;;;;;;;;5091289;28;20484;-70
2021/08/02 04:43:37;;;;;;;0.10;0.10;;;;;;;;;;5083390;28;20552;-70
2021/08/02 04:46:03;;;;;;;0.10;0.10;;;;;;;;;;5083461;28;20239;-71
2021/08/02 04:48:31;;;;;;;0.08;0.08;;;;;;;;;;5100662;28;20243;-70
2021/08/02 04:50:57;;;;;;;0.00;0.00;;;;;;;;;;5103643;28;20211;-71
2021/08/02 04:53:23;;;;;;;0.10;0.10;;;;;;;;;;5102815;28;20394;-70
2021/08/02 04:55:49;;;;;;;0.10;0.10;;;;;;;;;;5083166;28;20198;-70
2021/08/02 04:58:16;;;;;;;0.08;0.08;;;;;;;;;;5092503;28;20470;-70
2021/08/02 05:00:42;;;;;;;0.00;0.00;;;;;;;;;;5087952;28;20204;-71
2021/08/02 05:03:08;;;;;;;0.05;0.05;;;;;;;;;;5090884;28;20246;-70
2021/08/02 05:05:36;;;;;;;0.10;0.10;;;;;;;;;;5090235;28;20448;-71
2021/08/02 05:08:02;;;;;;;0.00;0.00;;;;;;;;;;5083341;28;20215;-71
2021/08/02 05:10:28;;;;;;;0.08;0.08;;;;;;;;;;5095284;28;20203;-71
2021/08/02 05:12:54;;;;;;;0.00;0.00;;;;;;;;;;5085100;28;20196;-70
2021/08/02 05:15:20;;;;;;;0.00;0.00;;;;;;;;;;5083248;28;20207;-71
2021/08/02 05:17:47;;;;;;;0.00;0.00;;;;;;;;;;5097467;28;20227;-70
2021/08/02 05:20:15;;;;;;;0.05;0.05;;;;;;;;;;5083328;28;20490;-72
2021/08/02 05:22:43;;;;;;;0.00;0.00;;;;;;;;;;5097482;28;20210;-71
2021/08/02 05:25:09;;;;;;;0.10;0.10;;;;;;;;;;5103334;28;20272;-71
2021/08/02 05:27:36;;;;;;;0.10;0.10;;;;;;;;;;5103653;28;20206;-71
2021/08/02 05:30:02;;;;;;;0.08;0.08;;;;;;;;;;5098765;28;20233;-71
2021/08/02 05:32:28;;;;;;;0.08;0.08;;;;;;;;;;5083202;28;20261;-72
2021/08/02 05:34:54;;;;;;;0.08;0.08;;;;;;;;;;5097101;28;20204;-70
2021/08/02 05:37:21;;;;;;;0.10;0.10;;;;;;;;;;5092247;28;20199;-71
2021/08/02 05:39:48;;;;;;;0.10;0.10;;;;;;;;;;5088360;28;20303;-71
2021/08/02 05:42:14;;;;;;;0.10;0.10;;;;;;;;;;5095371;28;20207;-71
2021/08/02 05:44:41;;;;;;;0.00;0.00;;;;;;;;;;5087008;28;20253;-71
2021/08/02 05:47:11;;;;;;;0.03;0.03;;;;;;;;;;5087209;28;20218;-71
2021/08/02 05:49:37;;;;;;;0.00;0.00;;;;;;;;;;5087426;28;20220;-71
2021/08/02 05:52:04;;;;;;;0.03;0.03;;;;;;;;;;5087085;28;20222;-70
2021/08/02 05:54:30;;;;;;;0.03;0.03;;;;;;;;;;5097097;28;20195;-71
2021/08/02 05:56:58;;;;;;;0.08;0.08;;;;;;;;;;5095141;28;20205;-71
2021/08/02 05:59:24;;;;;;;0.10;0.10;;;;;;;;;;5086794;28;20488;-71
2021/08/02 06:01:50;;;;;;;0.00;0.00;;;;;;;;;;5087543;28;20211;-71
2021/08/02 06:04:16;;;;;;;0.00;0.00;;;;;;;;;;5107503;28;20207;-71
2021/08/02 06:06:43;;;;;;;0.10;0.10;;;;;;;;;;5104699;28;20263;-70
2021/08/02 06:09:11;;;;;;;0.00;0.00;;;;;;;;;;5095583;28;20203;-71
2021/08/02 06:11:37;;;;;;;0.00;0.00;;;;;;;;;;5094644;28;20226;-71
2021/08/02 06:14:05;;;;;;;0.00;0.00;;;;;;;;;;5096118;28;20542;-73
2021/08/02 06:16:31;;;;;;;0.10;0.10;;;;;;;;;;5099138;28;20212;-70
2021/08/02 06:18:58;;;;;;;0.00;0.00;;;;;;;;;;5096381;28;20255;-72
2021/08/02 06:21:24;;;;;;;0.08;0.08;;;;;;;;;;5094705;28;20242;-74
2021/08/02 06:23:51;;;;;;;0.10;0.10;;;;;;;;;;5095064;28;20258;-71
2021/08/02 06:26:18;;;;;;;0.10;0.10;;;;;;;;;;5100824;28;20228;-74
2021/08/02 06:28:44;;;;;;;0.00;0.00;;;;;;;;;;5102638;28;20199;-72
2021/08/02 06:31:11;;;;;;;0.00;0.00;;;;;;;;;;5101500;28;20203;-71
2021/08/02 06:33:38;;;;;;;0.10;0.10;;;;;;;;;;5102227;28;20199;-72
2021/08/02 06:36:04;;;;;;;0.10;0.10;;;;;;;;;;5101712;28;20222;-71
2021/08/02 06:38:34;;;;;;;0.00;0.00;;;;;;;;;;5100747;28;20222;-71
2021/08/02 06:41:00;;;;;;;0.10;0.10;;;;;;;;;;5101452;28;20485;-71
2021/08/02 06:43:26;;;;;;;0.00;0.00;;;;;;;;;;5103014;28;20215;-72
2021/08/02 06:45:53;;;;;;;0.00;0.00;;;;;;;;;;5100814;28;20223;-71
2021/08/02 06:48:20;;;;;;;0.00;0.00;;;;;;;;;;5103061;28;20203;-72
2021/08/02 06:50:47;;;;;;;0.10;0.10;;;;;;;;;;5101097;28;20246;-71
2021/08/02 06:53:13;;;;;;;0.00;0.00;;;;;;;;;;5102810;28;20207;-71
2021/08/02 06:55:39;;;;;;;0.10;0.10;;;;;;;;;;5101976;28;20383;-71
2021/08/02 06:58:05;;;;;;;0.00;0.00;;;;;;;;;;5102247;28;20504;-71
2021/08/02 07:00:33;;;;;;;0.10;0.10;;;;;;;;;;5102063;28;20497;-72
2021/08/02 07:03:00;;;;;;;0.10;0.10;;;;;;;;;;5101331;28;20217;-73
2021/08/02 07:05:28;;;;;;;0.10;0.10;;;;;;;;;;5101599;28;20583;-72
2021/08/02 07:07:54;;;;;;;0.10;0.10;;;;;;;;;;5103110;28;20199;-71
2021/08/02 07:10:21;;;;;;;0.10;0.10;;;;;;;;;;5102862;28;20253;-73
2021/08/02 07:12:47;;;;;;;0.10;0.10;;;;;;;;;;5101222;28;20211;-72
2021/08/02 07:15:13;;;;;;;0.05;0.05;;;;;;;;;;5101443;28;20206;-72
2021/08/02 07:17:39;;;;;;;0.10;0.10;;;;;;;;;;5099423;28;20314;-72
2021/08/02 07:20:06;;;;;;;0.00;0.00;;;;;;;;;;5102482;28;20269;-72
2021/08/02 07:22:34;;;;;;;0.10;0.10;;;;;;;;;;5099989;28;20211;-71
2021/08/02 07:25:00;;;;;;;0.10;0.10;;;;;;;;;;5101695;28;20510;-71
2021/08/02 07:27:26;;;;;;;0.08;0.08;;;;;;;;;;5101762;28;20529;-72
2021/08/02 07:29:53;;;;;;;0.00;0.00;;;;;;;;;;5102121;28;20386;-72
2021/08/02 07:32:19;;;;;;;0.10;0.10;;;;;;;;;;5102810;28;20204;-72
2021/08/02 07:34:45;;;;;;;0.00;0.00;;;;;;;;;;5102034;28;20211;-69
2021/08/02 07:37:12;;;;;;;0.10;0.10;;;;;;;;;;5101888;28;20401;-71
2021/08/02 07:39:41;;;;;;;0.10;0.10;;;;;;;;;;5101227;28;20247;-72
2021/08/02 07:42:07;;;;;;;0.00;0.00;;;;;;;;;;5102353;28;21129;-71
2021/08/02 07:44:33;;;;;;;0.00;0.00;;;;;;;;;;5101152;28;20204;-71
2021/08/02 07:47:01;;;;;;;0.08;0.08;;;;;;;;;;5102284;28;20211;-70
2021/08/02 07:49:28;;;;;;;0.00;0.00;;;;;;;;;;5101341;28;20214;-71
2021/08/02 07:51:54;;;;;;;0.10;0.10;;;;;;;;;;5100100;28;20204;-72
2021/08/02 07:54:20;;;;;;;0.00;0.00;;;;;;;;;;5100728;28;20200;-71
2021/08/02 07:56:48;;;;;;;0.00;0.00;;;;;;;;;;5102113;28;20374;-72
2021/08/02 07:59:14;;;;;;;0.00;0.00;;;;;;;;;;5100931;28;20264;-72
2021/08/02 08:01:40;;;;;;;0.10;0.10;;;;;;;;;;5101668;28;20264;-71
2021/08/02 08:04:07;;;;;;;0.05;0.05;;;;;;;;;;5100253;28;20208;-72
2021/08/02 08:06:33;;;;;;;0.10;0.10;;;;;;;;;;5100652;28;20485;-71
2021/08/02 08:08:59;;;;;;;0.10;0.10;;;;;;;;;;5100409;28;20255;-71
2021/08/02 08:11:25;;;;;;;0.10;0.10;;;;;;;;;;5100353;28;20203;-71
2021/08/02 08:13:53;;;;;;;0.00;0.00;;;;;;;;;;5101325;28;20264;-71
2021/08/02 08:16:19;;;;;;;0.00;0.00;;;;;;;;;;5099083;28;20200;-71
2021/08/02 08:18:46;;;;;;;0.00;0.00;;;;;;;;;;5101936;28;20227;-70
2021/08/02 08:21:12;;;;;;;0.10;0.10;;;;;;;;;;5099666;28;20203;-71
2021/08/02 08:23:38;;;;;;;0.10;0.10;;;;;;;;;;5102023;28;20198;-72
2021/08/02 08:26:05;;;;;;;0.10;0.10;;;;;;;;;;5099912;28;20269;-71
2021/08/02 08:28:31;;;;;;;0.10;0.10;;;;;;;;;;5099911;28;20211;-71
2021/08/02 08:30:58;;;;;;;0.10;0.10;;;;;;;;;;5100960;28;20205;-71
2021/08/02 08:33:26;;;;;;;0.00;0.00;;;;;;;;;;5100929;28;20203;-71
2021/08/02 08:35:53;;;;;;;0.10;0.10;;;;;;;;;;5100079;28;20244;-72
2021/08/02 08:38:19;;;;;;;0.00;0.00;;;;;;;;;;5099727;28;20241;-71
2021/08/02 08:40:47;;;;;;;0.00;0.00;;;;;;;;;;5100366;28;20239;-72
2021/08/02 08:43:16;;;;;;;4.38;2.30;;;;;;;;;;5100126;28;20265;-71
2021/08/02 08:45:42;;;;;;;0.00;0.00;;;;;;;;;;5100610;28;20234;-71
2021/08/02 08:48:10;;;;;;;0.10;0.10;;;;;;;;;;5099678;28;20256;-71
2021/08/02 08:50:37;;;;;;;0.10;0.10;;;;;;;;;;5099721;28;20424;-71
2021/08/02 08:53:05;;;;;;;0.10;0.10;;;;;;;;;;5098700;28;20210;-70
2021/08/02 08:55:31;;;;;;;0.10;0.10;;;;;;;;;;5099654;28;20210;-72
2021/08/02 08:58:00;;;;;;;0.10;0.10;;;;;;;;;;5096186;28;20210;-71
2021/08/02 09:00:26;;;;;;;0.05;0.05;;;;;;;;;;5100786;28;20509;-71
2021/08/02 09:02:53;;;;;;;0.00;0.00;;;;;;;;;;5098882;28;20511;-71
2021/08/02 09:05:21;;;;;;;0.10;0.10;;;;;;;;;;5100391;28;20223;-70
2021/08/02 09:07:48;;;;;;;0.10;0.10;;;;;;;;;;5098656;28;20209;-70
2021/08/02 09:10:15;;;;;;;0.10;0.10;;;;;;;;;;5098633;28;20204;-70
2021/08/02 09:12:51;;;;;;;0.10;0.10;;;;;;;;;;5098030;28;20225;-69
2021/08/02 09:15:18;;;;;;;0.00;0.00;;;;;;;;;;5099227;28;20204;-70
2021/08/02 09:17:45;;;;;;;0.10;0.10;;;;;;;;;;5099830;28;20232;-70
2021/08/02 09:20:18;;;;;;;0.10;0.10;;;;;;;;;;5098747;28;20211;-70
2021/08/02 09:22:46;;;;;;;0.10;0.10;;;;;;;;;;5100961;28;20197;-70
2021/08/02 09:25:14;;;;;;;0.00;0.00;;;;;;;;;;5099363;28;20206;-70
2021/08/02 09:27:41;;;;;;;0.10;0.10;;;;;;;;;;5101883;28;20208;-70
2021/08/02 09:30:17;;;;;;;0.10;0.10;;;;;;;;;;5099171;28;20209;-71
2021/08/02 09:32:47;;;;;;;0.10;0.10;;;;;;;;;;5098632;28;20210;-72
2021/08/02 09:35:14;;;;;;;0.10;0.10;;;;;;;;;;5097690;28;20215;-70
2021/08/02 09:37:40;;;;;;;0.00;0.00;;;;;;;;;;5100498;28;20538;-71
2021/08/02 09:40:08;;;;;;;0.00;0.00;;;;;;;;;;5099063;28;20452;-71
2021/08/02 09:42:34;;;;;;;0.10;0.10;;;;;;;;;;5098038;28;20214;-71
2021/08/02 09:45:01;;;;;;;0.00;0.00;;;;;;;;;;5099783;28;20247;-72
2021/08/02 09:47:28;;;;;;;0.10;0.10;;;;;;;;;;5099270;28;20275;-73
2021/08/02 09:49:54;;;;;;;0.05;0.05;;;;;;;;;;5100611;28;20201;-69
2021/08/02 09:52:21;;;;;;;0.00;0.00;;;;;;;;;;5097530;28;20224;-70
2021/08/02 09:54:47;;;;;;;0.00;0.00;;;;;;;;;;5099000;28;20391;-71
2021/08/02 09:57:15;;;;;;;0.00;0.00;;;;;;;;;;5098273;28;20208;-73
2021/08/02 09:59:42;;;;;;;0.00;0.00;;;;;;;;;;5100770;28;20532;-72
2021/08/02 10:02:09;;;;;;;0.00;0.00;;;;;;;;;;5098946;28;20235;-71
2021/08/02 10:04:35;;;;;;;0.10;0.10;;;;;;;;;;5098397;28;20527;-72
2021/08/02 10:07:02;;;;;;;0.00;0.00;;;;;;;;;;5097816;28;20233;-73
2021/08/02 10:09:28;;;;;;;0.00;0.00;;;;;;;;;;5098964;28;20535;-72
2021/08/02 10:11:55;;;;;;;0.10;0.10;;;;;;;;;;5097204;28;20276;-69
2021/08/02 10:14:27;;;;;;;0.00;0.00;;;;;;;;;;5097621;28;20212;-73
2021/08/02 10:16:53;;;;;;;0.00;0.00;;;;;;;;;;5097671;28;20529;-76
2021/08/02 10:19:21;;;;;;;0.00;0.00;;;;;;;;;;5098922;28;20238;-72
2021/08/02 10:21:48;;;;;;;0.00;0.00;;;;;;;;;;5097157;28;20264;-71
2021/08/02 10:24:16;;;;;;;0.03;0.03;;;;;;;;;;5097919;28;20205;-69
2021/08/02 10:26:56;;;;;;;0.10;0.10;;;;;;;;;;5098479;28;20607;-69
2021/08/02 10:29:24;;;;;;;0.00;0.00;;;;;;;;;;5100747;28;20218;-69
2021/08/02 10:31:51;;;;;;;0.00;0.00;;;;;;;;;;5101379;28;20217;-69
2021/08/02 10:34:18;;;;;;;0.10;0.10;;;;;;;;;;5102263;28;20276;-69
2021/08/02 10:36:57;;;;;;;0.00;0.00;;;;;;;;;;5101752;28;20228;-68
2021/08/02 10:39:23;;;;;;;0.00;0.00;;;;;;;;;;5099676;28;20230;-71
2021/08/02 10:41:49;;;;;;;0.00;0.00;;;;;;;;;;5102193;28;20267;-71
2021/08/02 10:44:16;;;;;;;0.00;0.00;;;;;;;;;;5102538;28;20211;-70
2021/08/02 10:46:44;;;;;;;0.00;0.00;;;;;;;;;;5102349;28;20238;-72
2021/08/02 10:49:11;;;;;;;0.10;0.10;;;;;;;;;;5102015;28;20217;-70
2021/08/02 10:51:45;;;;;;;0.00;0.00;;;;;;;;;;5102113;28;20220;-72
2021/08/02 10:54:12;;;;;;;0.00;0.00;;;;;;;;;;5101504;28;21158;-72
2021/08/02 10:56:38;;;;;;;0.10;0.10;;;;;;;;;;5102016;28;20370;-72
2021/08/02 10:59:04;;;;;;;0.10;0.10;;;;;;;;;;5101940;28;20574;-76
2021/08/02 11:01:31;;;;;;;0.10;0.10;;;;;;;;;;5101885;28;20211;-75
2021/08/02 11:04:10;;;;;;;0.00;0.00;;;;;;;;;;5100402;28;20384;-73
2021/08/02 11:06:37;;;;;;;0.00;0.00;;;;;;;;;;5101148;28;20232;-72
2021/08/02 11:09:03;;;;;;;0.00;0.00;;;;;;;;;;5102149;28;20210;-73
2021/08/02 11:11:30;;;;;;;0.00;0.00;;;;;;;;;;5100842;28;20263;-72
2021/08/02 11:14:05;;;;;;;0.03;0.03;;;;;;;;;;5101348;28;20245;-73
2021/08/02 11:16:37;;;;;;;0.00;0.00;;;;;;;;;;5101593;28;20264;-74
2021/08/02 11:19:07;;;;;;;0.10;0.10;;;;;;;;;;5099902;28;20241;-74
2021/08/02 11:21:33;;;;;;;0.20;0.20;;;;;;;;;;5100234;28;20203;-74
2021/08/02 11:23:59;;;;;;;0.00;0.00;;;;;;;;;;5102914;28;20263;-75
2021/08/02 11:26:25;;;;;;;0.00;0.00;;;;;;;;;;5101696;28;20455;-72
2021/08/02 11:28:54;;;;;;;0.10;0.10;;;;;;;;;;5102499;28;20500;-73
2021/08/02 11:31:25;;;;;;;0.00;0.00;;;;;;;;;;5098027;28;20490;-72
2021/08/02 11:33:51;;;;;;;0.08;0.08;;;;;;;;;;5102122;28;20206;-74
2021/08/02 11:36:20;;;;;;;0.00;0.00;;;;;;;;;;5101649;28;21208;-76
2021/08/02 11:38:47;;;;;;;0.10;0.10;;;;;;;;;;5101635;28;20262;-75
2021/08/02 11:41:23;;;;;;;0.00;0.00;;;;;;;;;;5100261;28;20224;-75
2021/08/02 11:43:50;;;;;;;0.00;0.00;;;;;;;;;;5101459;28;20259;-73
2021/08/02 11:46:16;;;;;;;0.10;0.10;;;;;;;;;;5099696;28;20279;-75
2021/08/02 11:48:43;;;;;;;0.00;0.00;;;;;;;;;;5101970;28;20254;-74
2021/08/02 11:51:10;;;;;;;0.10;0.10;;;;;;;;;;5102501;28;20213;-74
2021/08/02 11:53:38;;;;;;;0.00;0.00;;;;;;;;;;5100308;28;20255;-74
2021/08/02 11:56:05;;;;;;;0.00;0.00;;;;;;;;;;5100602;28;20210;-75
2021/08/02 11:58:37;;;;;;;0.00;0.00;;;;;;;;;;5100174;28;20226;-75
2021/08/02 12:01:04;;;;;;;0.00;0.00;;;;;;;;;;5100105;28;20210;-75
2021/08/02 12:03:30;;;;;;;0.00;0.00;;;;;;;;;;5099908;28;20207;-74
2021/08/02 12:06:01;;;;;;;0.10;0.10;;;;;;;;;;5100789;28;20198;-73
2021/08/02 12:08:28;;;;;;;0.00;0.00;;;;;;;;;;5099215;28;20195;-73
2021/08/02 12:10:58;;;;;;;0.00;0.00;;;;;;;;;;5099263;28;20206;-75
2021/08/02 12:13:25;;;;;;;0.00;0.00;;;;;;;;;;5099240;28;20194;-74
2021/08/02 12:15:52;;;;;;;0.00;0.00;;;;;;;;;;5099046;28;20720;-73
2021/08/02 12:18:21;;;;;;;0.00;0.00;;;;;;;;;;5098988;28;20295;-76
2021/08/02 12:20:48;;;;;;;0.00;0.00;;;;;;;;;;5100747;28;20546;-72
2021/08/02 12:23:22;;;;;;;0.00;0.00;;;;;;;;;;5101406;28;20492;-73
2021/08/02 12:25:48;;;;;;;0.08;0.08;;;;;;;;;;5100230;28;20246;-73
2021/08/02 12:28:16;;;;;;;0.40;0.40;;;;;;;;;;5099800;28;20420;-73
2021/08/02 12:30:43;;;;;;;0.00;0.00;;;;;;;;;;5099887;28;20256;-72
2021/08/02 12:33:10;;;;;;;0.10;0.10;;;;;;;;;;5100697;28;20422;-74
2021/08/02 12:35:36;;;;;;;0.10;0.10;;;;;;;;;;5099198;28;20218;-76
2021/08/02 12:38:03;;;;;;;0.00;0.00;;;;;;;;;;5100230;28;20267;-74
2021/08/02 12:40:30;;;;;;;0.00;0.00;;;;;;;;;;5099096;28;20390;-74
2021/08/02 12:42:56;;;;;;;0.10;0.10;;;;;;;;;;5100071;28;20203;-75
2021/08/02 12:45:24;;;;;;;0.00;0.00;;;;;;;;;;5099014;28;20301;-75
2021/08/02 12:47:51;;;;;;;0.00;0.00;;;;;;;;;;5099537;28;20309;-77
2021/08/02 12:50:18;;;;;;;0.10;0.10;;;;;;;;;;5098953;28;20267;-77
2021/08/02 12:52:45;;;;;;;0.00;0.00;;;;;;;;;;5099551;28;20211;-75
2021/08/02 12:55:12;;;;;;;0.00;0.00;;;;;;;;;;5098567;28;20218;-73
2021/08/02 12:57:41;;;;;;;0.00;0.00;;;;;;;;;;5099672;28;20202;-74
2021/08/02 13:00:08;;;;;;;0.00;0.00;;;;;;;;;;5099454;28;20221;-76
2021/08/02 13:02:36;;;;;;;0.00;0.00;;;;;;;;;;5098376;28;20240;-73
2021/08/02 13:05:02;;;;;;;0.00;0.00;;;;;;;;;;5098664;28;20559;-75
2021/08/02 13:07:29;;;;;;;0.03;0.03;;;;;;;;;;5097843;28;20237;-75
2021/08/02 13:09:56;;;;;;;0.03;0.03;;;;;;;;;;5098726;28;20206;-75
2021/08/02 13:12:22;;;;;;;0.00;0.00;;;;;;;;;;5097857;28;20258;-74
2021/08/02 13:14:49;;;;;;;0.00;0.00;;;;;;;;;;5099658;28;20262;-73
2021/08/02 13:17:15;;;;;;;0.00;0.00;;;;;;;;;;5098546;28;20194;-74
2021/08/02 13:19:44;;;;;;;0.00;0.00;;;;;;;;;;5099582;28;20291;-74
2021/08/02 13:22:12;;;;;;;0.00;0.00;;;;;;;;;;5098204;28;20373;-73
2021/08/02 13:27:22;;;;;;;0.00;0.00;;;;;;;;;;5097188;28;20246;-70
2021/08/02 13:29:48;;;;;;;0.00;0.00;;;;;;;;;;5099373;28;20211;-71
2021/08/02 13:32:15;;;;;;;0.00;0.00;;;;;;;;;;5096583;28;20225;-71
2021/08/02 13:34:45;;;;;;;0.00;0.00;;;;;;;;;;5100707;28;20213;-72
2021/08/02 13:37:11;;;;;;;0.00;0.00;;;;;;;;;;5098546;28;20203;-71
2021/08/02 13:39:37;;;;;;;0.00;0.00;;;;;;;;;;5099163;28;20348;-74
2021/08/02 13:42:05;;;;;;;0.05;0.05;;;;;;;;;;5099639;28;20221;-72
2021/08/02 13:44:31;;;;;;;0.10;0.10;;;;;;;;;;5099140;28;20210;-73
2021/08/02 13:46:58;;;;;;;0.00;0.00;;;;;;;;;;5098217;28;20233;-72
2021/08/02 13:49:24;;;;;;;0.00;0.00;;;;;;;;;;5098673;28;20209;-73
2021/08/02 13:51:52;;;;;;;0.00;0.00;;;;;;;;;;5099926;28;20205;-71
2021/08/02 13:54:21;;;;;;;0.00;0.00;;;;;;;;;;5098732;28;20204;-73
2021/08/02 13:56:47;;;;;;;0.00;0.00;;;;;;;;;;5099287;28;20209;-69
2021/08/02 13:59:14;;;;;;;0.03;0.03;;;;;;;;;;5097547;28;20263;-71
2021/08/02 14:01:41;;;;;;;0.00;0.00;;;;;;;;;;5100139;28;20280;-73
2021/08/02 14:04:07;;;;;;;0.10;0.10;;;;;;;;;;5100845;28;20217;-73
2021/08/02 14:06:34;;;;;;;0.00;0.00;;;;;;;;;;5104150;28;20260;-72
2021/08/02 14:09:02;;;;;;;0.00;0.00;;;;;;;;;;5102561;28;20212;-72
2021/08/02 14:11:28;;;;;;;0.00;0.00;;;;;;;;;;5100382;28;20215;-72
2021/08/02 14:13:55;;;;;;;0.10;0.10;;;;;;;;;;5100960;28;20206;-72
2021/08/02 14:16:22;;;;;;;1.35;0.57;;;;;;;;;;5099905;28;20214;-72
2021/08/02 14:18:51;;;;;;;0.00;0.00;;;;;;;;;;5101523;28;20227;-71
2021/08/02 14:21:20;;;;;;;0.05;0.05;;;;;;;;;;5100111;28;20251;-73
2021/08/02 14:23:46;;;;;;;0.00;0.00;;;;;;;;;;5102006;28;20209;-72
2021/08/02 14:26:14;;;;;;;0.00;0.00;;;;;;;;;;5100507;28;20220;-73
2021/08/02 14:28:42;;;;;;;0.00;0.00;;;;;;;;;;5102709;28;20494;-72
2021/08/02 14:31:08;;;;;;;0.00;0.00;;;;;;;;;;5101527;28;20262;-72
2021/08/02 14:33:36;;;;;;;0.00;0.00;;;;;;;;;;5103004;28;20251;-71
2021/08/02 14:36:04;;;;;;;0.00;0.00;;;;;;;;;;5101722;28;20256;-72
2021/08/02 14:38:30;;;;;;;0.00;0.00;;;;;;;;;;5101752;28;20257;-72
2021/08/02 14:40:57;;;;;;;0.00;0.00;;;;;;;;;;5100514;28;20229;-73
2021/08/02 14:43:27;;;;;;;1.00;0.85;;;;;;;;;;5102394;28;20498;-72
2021/08/02 14:45:54;;;;;;;0.10;0.10;;;;;;;;;;5100891;28;20374;-70
2021/08/02 14:48:23;;;;;;;0.00;0.00;;;;;;;;;;5102033;28;20234;-72